createdAt,value
2019-03-12T00:00:11.527Z,1021.54
2019-03-12T00:01:11.592Z,1021.50
2019-03-12T00:02:11.453Z,1021.46
2019-03-12T00:03:11.424Z,1021.50
2019-03-12T00:04:11.394Z,1021.51
2019-03-12T00:05:11.432Z,1021.44
2019-03-12T00:06:11.334Z,1021.39
2019-03-12T00:07:11.322Z,1021.32
2019-03-12T00:08:11.271Z,1021.27
2019-03-12T00:09:11.234Z,1021.24
2019-03-12T00:10:12.273Z,1021.22
2019-03-12T00:11:11.174Z,1021.22
2019-03-12T00:12:11.244Z,1021.24
2019-03-12T00:13:11.124Z,1021.24
2019-03-12T00:14:11.092Z,1021.24
2019-03-12T00:15:11.057Z,1021.20
2019-03-12T00:16:11.075Z,1021.20
2019-03-12T00:17:10.994Z,1021.22
2019-03-12T00:18:10.982Z,1021.23
2019-03-12T00:19:10.924Z,1021.22
2019-03-12T00:20:10.891Z,1021.19
2019-03-12T00:21:10.895Z,1021.18
2019-03-12T00:22:10.834Z,1021.15
2019-03-12T00:23:10.914Z,1021.15
2019-03-12T00:24:10.773Z,1021.17
2019-03-12T00:25:10.826Z,1021.15
2019-03-12T00:26:10.712Z,1021.16
2019-03-12T00:27:10.734Z,1021.17
2019-03-12T00:28:10.645Z,1021.19
2019-03-12T00:29:10.654Z,1021.12
2019-03-12T00:30:10.598Z,1021.10
2019-03-12T00:31:10.555Z,1021.09
2019-03-12T00:32:10.523Z,1021.10
2019-03-12T00:33:10.566Z,1021.11
2019-03-12T00:34:10.475Z,1021.15
2019-03-12T00:35:10.507Z,1021.15
2019-03-12T00:36:10.403Z,1021.17
2019-03-12T00:37:10.376Z,1021.15
2019-03-12T00:38:10.388Z,1021.14
2019-03-12T00:39:10.315Z,1021.14
2019-03-12T00:40:10.292Z,1021.16
2019-03-12T00:41:10.247Z,1021.21
2019-03-12T00:42:10.230Z,1021.27
2019-03-12T00:43:10.184Z,1021.26
2019-03-12T00:44:10.223Z,1021.25
2019-03-12T00:45:10.126Z,1021.24
2019-03-12T00:46:10.132Z,1021.24
2019-03-12T00:47:10.065Z,1021.28
2019-03-12T00:48:10.036Z,1021.24
2019-03-12T00:49:09.995Z,1021.29
2019-03-12T00:50:10.055Z,1021.19
2019-03-12T00:51:09.944Z,1021.14
2019-03-12T00:52:09.964Z,1021.18
2019-03-12T00:53:09.873Z,1021.18
2019-03-12T00:54:09.873Z,1021.18
2019-03-12T00:55:09.840Z,1021.21
2019-03-12T00:56:09.883Z,1021.18
2019-03-12T00:57:09.743Z,1021.17
2019-03-12T00:58:09.806Z,1021.20
2019-03-12T00:59:09.706Z,1021.20
2019-03-12T01:00:09.656Z,1021.19
2019-03-12T01:01:09.714Z,1021.22
2019-03-12T01:02:09.597Z,1021.19
2019-03-12T01:03:09.623Z,1021.18
2019-03-12T01:04:09.553Z,1021.14
2019-03-12T01:05:09.536Z,1021.17
2019-03-12T01:06:09.473Z,1021.16
2019-03-12T01:07:09.554Z,1021.15
2019-03-12T01:08:09.416Z,1021.09
2019-03-12T01:09:09.455Z,1021.04
2019-03-12T01:10:09.364Z,1020.98
2019-03-12T01:11:09.312Z,1021.03
2019-03-12T01:12:10.293Z,1021.03
2019-03-12T01:13:09.254Z,1021.03
2019-03-12T01:14:09.284Z,1021.04
2019-03-12T01:15:09.184Z,1021.05
2019-03-12T01:16:09.168Z,1021.01
2019-03-12T01:17:09.204Z,1020.98
2019-03-12T01:18:09.093Z,1020.95
2019-03-12T01:19:09.113Z,1020.95
2019-03-12T01:20:09.034Z,1020.87
2019-03-12T01:21:08.995Z,1020.86
2019-03-12T01:22:08.975Z,1020.85
2019-03-12T01:23:09.045Z,1020.86
2019-03-12T01:24:08.913Z,1020.87
2019-03-12T01:25:08.954Z,1020.88
2019-03-12T01:26:08.845Z,1020.88
2019-03-12T01:27:08.820Z,1020.81
2019-03-12T01:28:08.863Z,1020.83
2019-03-12T01:29:08.752Z,1020.82
2019-03-12T01:30:08.772Z,1020.79
2019-03-12T01:31:08.698Z,1020.74
2019-03-12T01:32:08.664Z,1020.74
2019-03-12T01:33:08.622Z,1020.74
2019-03-12T01:34:08.716Z,1020.76
2019-03-12T01:35:08.564Z,1020.70
2019-03-12T01:36:08.605Z,1020.71
2019-03-12T01:37:08.502Z,1020.73
2019-03-12T01:38:08.551Z,1020.70
2019-03-12T01:39:08.515Z,1020.70
2019-03-12T01:40:08.425Z,1020.65
2019-03-12T01:41:08.440Z,1020.66
2019-03-12T01:42:08.345Z,1020.64
2019-03-12T01:43:08.317Z,1020.59
2019-03-12T01:44:08.285Z,1020.61
2019-03-12T01:45:08.354Z,1020.58
2019-03-12T01:46:08.225Z,1020.57
2019-03-12T01:47:08.265Z,1020.57
2019-03-12T01:48:08.154Z,1020.54
2019-03-12T01:49:08.127Z,1020.50
2019-03-12T01:50:08.177Z,1020.46
2019-03-12T01:51:08.078Z,1020.48
2019-03-12T01:52:08.087Z,1020.51
2019-03-12T01:53:08.009Z,1020.50
2019-03-12T01:54:07.997Z,1020.50
2019-03-12T01:55:07.952Z,1020.49
2019-03-12T01:56:08.013Z,1020.52
2019-03-12T01:57:07.879Z,1020.54
2019-03-12T01:58:07.926Z,1020.50
2019-03-12T01:59:07.815Z,1020.50
2019-03-12T02:00:07.784Z,1020.46
2019-03-12T02:01:07.835Z,1020.44
2019-03-12T02:02:07.733Z,1020.41
2019-03-12T02:03:07.758Z,1020.38
2019-03-12T02:04:07.663Z,1020.41
2019-03-12T02:05:07.655Z,1020.39
2019-03-12T02:06:07.605Z,1020.39
2019-03-12T02:07:07.673Z,1020.32
2019-03-12T02:08:07.537Z,1020.24
2019-03-12T02:09:07.595Z,1020.25
2019-03-12T02:10:07.474Z,1020.20
2019-03-12T02:11:07.444Z,1020.16
2019-03-12T02:12:07.412Z,1020.17
2019-03-12T02:13:07.504Z,1020.20
2019-03-12T02:14:07.345Z,1020.16
2019-03-12T02:15:07.415Z,1020.14
2019-03-12T02:16:07.295Z,1020.10
2019-03-12T02:17:07.255Z,1020.09
2019-03-12T02:18:07.337Z,1020.07
2019-03-12T02:19:07.198Z,1020.02
2019-03-12T02:20:07.243Z,1020.03
2019-03-12T02:21:07.135Z,1019.98
2019-03-12T02:22:07.116Z,1019.97
2019-03-12T02:23:07.075Z,1020.02
2019-03-12T02:24:07.066Z,1019.97
2019-03-12T02:25:07.013Z,1019.97
2019-03-12T02:26:07.075Z,1019.99
2019-03-12T02:27:06.955Z,1019.93
2019-03-12T02:28:06.915Z,1019.96
2019-03-12T02:29:06.996Z,1019.91
2019-03-12T02:30:06.853Z,1019.97
2019-03-12T02:31:06.907Z,1019.93
2019-03-12T02:32:06.794Z,1019.95
2019-03-12T02:33:06.815Z,1019.94
2019-03-12T02:34:06.724Z,1019.91
2019-03-12T02:35:06.727Z,1019.91
2019-03-12T02:36:06.663Z,1019.87
2019-03-12T02:37:06.732Z,1019.87
2019-03-12T02:38:06.602Z,1019.86
2019-03-12T02:39:06.574Z,1019.81
2019-03-12T02:40:06.562Z,1019.81
2019-03-12T02:41:06.550Z,1019.79
2019-03-12T02:42:06.480Z,1019.76
2019-03-12T02:43:06.473Z,1019.77
2019-03-12T02:44:06.417Z,1019.76
2019-03-12T02:45:06.428Z,1019.75
2019-03-12T02:46:06.383Z,1019.81
2019-03-12T02:47:06.324Z,1019.72
2019-03-12T02:48:06.405Z,1019.78
2019-03-12T02:49:09.311Z,1019.76
2019-03-12T02:50:06.246Z,1019.75
2019-03-12T02:51:06.202Z,1019.72
2019-03-12T02:52:06.224Z,1019.71
2019-03-12T02:53:06.142Z,1019.68
2019-03-12T02:54:06.121Z,1019.71
2019-03-12T02:55:06.075Z,1019.74
2019-03-12T02:56:06.091Z,1019.75
2019-03-12T02:57:06.042Z,1019.72
2019-03-12T02:58:05.988Z,1019.65
2019-03-12T02:59:06.066Z,1019.68
2019-03-12T03:00:05.924Z,1019.63
2019-03-12T03:01:05.894Z,1019.59
2019-03-12T03:02:05.862Z,1019.61
2019-03-12T03:03:05.873Z,1019.56
2019-03-12T03:04:05.803Z,1019.58
2019-03-12T03:05:05.785Z,1019.57
2019-03-12T03:06:05.727Z,1019.57
2019-03-12T03:07:05.712Z,1019.55
2019-03-12T03:08:05.746Z,1019.50
2019-03-12T03:09:05.636Z,1019.56
2019-03-12T03:10:05.727Z,1019.53
2019-03-12T03:11:05.575Z,1019.43
2019-03-12T03:12:05.546Z,1019.43
2019-03-12T03:13:05.514Z,1019.41
2019-03-12T03:14:05.532Z,1019.48
2019-03-12T03:15:05.442Z,1019.50
2019-03-12T03:16:05.442Z,1019.44
2019-03-12T03:17:05.381Z,1019.39
2019-03-12T03:18:05.351Z,1019.43
2019-03-12T03:19:05.321Z,1019.37
2019-03-12T03:20:05.363Z,1019.38
2019-03-12T03:21:05.266Z,1019.38
2019-03-12T03:22:05.272Z,1019.37
2019-03-12T03:23:05.190Z,1019.39
2019-03-12T03:24:05.183Z,1019.40
2019-03-12T03:25:05.136Z,1019.39
2019-03-12T03:26:05.272Z,1019.31
2019-03-12T03:27:05.072Z,1019.31
2019-03-12T03:28:05.122Z,1019.28
2019-03-12T03:29:05.014Z,1019.28
2019-03-12T03:30:05.025Z,1019.27
2019-03-12T03:31:04.999Z,1019.27
2019-03-12T03:32:05.036Z,1019.24
2019-03-12T03:33:04.907Z,1019.19
2019-03-12T03:34:04.961Z,1019.22
2019-03-12T03:35:04.814Z,1019.22
2019-03-12T03:36:04.857Z,1019.23
2019-03-12T03:37:04.763Z,1019.27
2019-03-12T03:38:04.765Z,1019.17
2019-03-12T03:39:04.706Z,1019.19
2019-03-12T03:40:04.666Z,1019.20
2019-03-12T03:41:04.689Z,1019.15
2019-03-12T03:42:04.607Z,1019.17
2019-03-12T03:43:04.593Z,1019.13
2019-03-12T03:44:04.548Z,1019.16
2019-03-12T03:45:04.604Z,1019.13
2019-03-12T03:46:04.473Z,1019.11
2019-03-12T03:47:04.511Z,1019.14
2019-03-12T03:48:04.411Z,1019.12
2019-03-12T03:49:04.425Z,1019.08
2019-03-12T03:50:04.354Z,1019.11
2019-03-12T03:51:04.323Z,1019.07
2019-03-12T03:52:04.289Z,1019.08
2019-03-12T03:53:04.341Z,1019.09
2019-03-12T03:54:04.265Z,1019.09
2019-03-12T03:55:04.264Z,1019.04
2019-03-12T03:56:04.160Z,1019.04
2019-03-12T03:57:04.122Z,1018.97
2019-03-12T03:58:04.173Z,1019.02
2019-03-12T03:59:04.063Z,1019.03
2019-03-12T04:00:04.083Z,1019.01
2019-03-12T04:01:04.004Z,1019.03
2019-03-12T04:02:03.964Z,1018.95
2019-03-12T04:03:03.942Z,1018.94
2019-03-12T04:04:04.001Z,1018.92
2019-03-12T04:05:03.883Z,1018.89
2019-03-12T04:06:03.915Z,1018.92
2019-03-12T04:07:03.838Z,1018.84
2019-03-12T04:08:03.786Z,1018.87
2019-03-12T04:09:03.752Z,1018.87
2019-03-12T04:10:03.734Z,1018.83
2019-03-12T04:11:03.701Z,1018.79
2019-03-12T04:12:03.746Z,1018.80
2019-03-12T04:13:03.633Z,1018.78
2019-03-12T04:14:03.654Z,1018.74
2019-03-12T04:15:03.562Z,1018.71
2019-03-12T04:16:03.571Z,1018.70
2019-03-12T04:17:03.493Z,1018.68
2019-03-12T04:18:03.592Z,1018.64
2019-03-12T04:19:03.430Z,1018.64
2019-03-12T04:20:03.523Z,1018.62
2019-03-12T04:21:03.384Z,1018.58
2019-03-12T04:22:03.405Z,1018.57
2019-03-12T04:23:03.316Z,1018.58
2019-03-12T04:24:03.315Z,1018.58
2019-03-12T04:25:03.254Z,1018.51
2019-03-12T04:26:03.323Z,1018.55
2019-03-12T04:27:03.179Z,1018.57
2019-03-12T04:28:03.233Z,1018.54
2019-03-12T04:29:03.132Z,1018.55
2019-03-12T04:30:03.101Z,1018.54
2019-03-12T04:31:03.066Z,1018.47
2019-03-12T04:32:03.051Z,1018.45
2019-03-12T04:33:03.004Z,1018.47
2019-03-12T04:34:03.069Z,1018.45
2019-03-12T04:35:02.942Z,1018.43
2019-03-12T04:36:02.917Z,1018.38
2019-03-12T04:37:02.983Z,1018.40
2019-03-12T04:38:02.855Z,1018.39
2019-03-12T04:39:02.897Z,1018.40
2019-03-12T04:40:02.783Z,1018.38
2019-03-12T04:41:02.752Z,1018.38
2019-03-12T04:42:02.722Z,1018.31
2019-03-12T04:43:02.709Z,1018.31
2019-03-12T04:44:02.663Z,1018.28
2019-03-12T04:45:02.722Z,1018.22
2019-03-12T04:46:02.595Z,1018.23
2019-03-12T04:47:02.565Z,1018.21
2019-03-12T04:48:02.535Z,1018.18
2019-03-12T04:49:02.542Z,1018.17
2019-03-12T04:50:02.473Z,1018.17
2019-03-12T04:51:02.453Z,1018.09
2019-03-12T04:52:02.411Z,1018.09
2019-03-12T04:53:02.471Z,1018.05
2019-03-12T04:54:02.353Z,1018.08
2019-03-12T04:55:02.381Z,1018.01
2019-03-12T04:56:02.282Z,1018.01
2019-03-12T04:57:02.291Z,1018.00
2019-03-12T04:58:02.232Z,1017.98
2019-03-12T04:59:02.193Z,1017.92
2019-03-12T05:00:02.200Z,1017.97
2019-03-12T05:01:02.139Z,1017.96
2019-03-12T05:02:03.141Z,1017.96
2019-03-12T05:03:02.062Z,1017.95
2019-03-12T05:04:02.130Z,1017.96
2019-03-12T05:05:02.005Z,1017.94
2019-03-12T05:06:02.043Z,1017.91
2019-03-12T05:07:01.932Z,1017.92
2019-03-12T05:08:01.965Z,1017.86
2019-03-12T05:09:01.870Z,1017.89
2019-03-12T05:10:01.851Z,1017.90
2019-03-12T05:11:01.876Z,1017.92
2019-03-12T05:12:01.784Z,1017.94
2019-03-12T05:13:01.772Z,1017.89
2019-03-12T05:14:01.722Z,1017.92
2019-03-12T05:15:01.682Z,1017.89
2019-03-12T05:16:01.691Z,1017.90
2019-03-12T05:17:01.634Z,1017.90
2019-03-12T05:18:01.700Z,1017.87
2019-03-12T05:19:01.560Z,1017.85
2019-03-12T05:20:01.541Z,1017.83
2019-03-12T05:21:01.501Z,1017.85
2019-03-12T05:22:01.522Z,1017.78
2019-03-12T05:23:01.444Z,1017.79
2019-03-12T05:24:01.432Z,1017.81
2019-03-12T05:25:01.383Z,1017.84
2019-03-12T05:26:01.341Z,1017.80
2019-03-12T05:27:01.350Z,1017.76
2019-03-12T05:28:01.291Z,1017.76
2019-03-12T05:29:01.362Z,1017.72
2019-03-12T05:30:01.223Z,1017.68
2019-03-12T05:31:01.192Z,1017.67
2019-03-12T05:32:01.164Z,1017.62
2019-03-12T05:33:01.182Z,1017.64
2019-03-12T05:34:01.108Z,1017.63
2019-03-12T05:35:01.090Z,1017.61
2019-03-12T05:36:01.040Z,1017.59
2019-03-12T05:37:01.014Z,1017.57
2019-03-12T05:38:01.015Z,1017.55
2019-03-12T05:39:00.962Z,1017.55
2019-03-12T05:40:01.025Z,1017.56
2019-03-12T05:41:00.881Z,1017.55
2019-03-12T05:42:00.937Z,1017.53
2019-03-12T05:43:00.823Z,1017.52
2019-03-12T05:44:00.842Z,1017.48
2019-03-12T05:45:00.762Z,1017.48
2019-03-12T05:46:00.750Z,1017.46
2019-03-12T05:47:00.689Z,1017.45
2019-03-12T05:48:00.672Z,1017.43
2019-03-12T05:49:00.674Z,1017.44
2019-03-12T05:50:00.612Z,1017.46
2019-03-12T05:51:00.680Z,1017.48
2019-03-12T05:52:00.550Z,1017.47
2019-03-12T05:53:00.589Z,1017.43
2019-03-12T05:54:00.483Z,1017.40
2019-03-12T05:55:00.521Z,1017.40
2019-03-12T05:56:00.412Z,1017.37
2019-03-12T05:57:00.426Z,1017.43
2019-03-12T05:58:00.362Z,1017.42
2019-03-12T05:59:00.321Z,1017.41
2019-03-12T06:00:00.404Z,1017.38
2019-03-12T06:01:00.339Z,1017.36
2019-03-12T06:02:00.240Z,1017.40
2019-03-12T06:03:00.252Z,1017.33
2019-03-12T06:04:00.172Z,1017.33
2019-03-12T06:05:00.368Z,1017.27
2019-03-12T06:06:00.162Z,1017.24
2019-03-12T06:07:00.076Z,1017.29
2019-03-12T06:08:00.072Z,1017.24
2019-03-12T06:09:00.022Z,1017.20
2019-03-12T06:09:59.982Z,1017.12
2019-03-12T06:10:59.950Z,1017.11
2019-03-12T06:11:59.990Z,1017.05
2019-03-12T06:12:59.892Z,1017.05
2019-03-12T06:13:59.901Z,1017.05
2019-03-12T06:14:59.832Z,1017.05
2019-03-12T06:15:59.803Z,1017.01
2019-03-12T06:16:59.824Z,1016.99
2019-03-12T06:17:59.731Z,1017.01
2019-03-12T06:18:59.737Z,1017.05
2019-03-12T06:19:59.674Z,1016.95
2019-03-12T06:20:59.652Z,1016.94
2019-03-12T06:21:59.613Z,1016.96
2019-03-12T06:22:59.682Z,1016.92
2019-03-12T06:23:59.602Z,1017.00
2019-03-12T06:24:59.596Z,1016.94
2019-03-12T06:25:59.492Z,1016.88
2019-03-12T06:26:59.466Z,1016.88
2019-03-12T06:27:59.423Z,1016.89
2019-03-12T06:28:59.531Z,1016.89
2019-03-12T06:29:59.362Z,1016.88
2019-03-12T06:30:59.431Z,1016.81
2019-03-12T06:31:59.313Z,1016.92
2019-03-12T06:32:59.279Z,1016.81
2019-03-12T06:33:59.352Z,1016.84
2019-03-12T06:34:59.210Z,1016.81
2019-03-12T06:35:59.274Z,1016.76
2019-03-12T06:36:59.155Z,1016.76
2019-03-12T06:37:59.129Z,1016.74
2019-03-12T06:38:59.092Z,1016.80
2019-03-12T06:39:59.193Z,1016.70
2019-03-12T06:40:59.032Z,1016.75
2019-03-12T06:41:59.101Z,1016.68
2019-03-12T06:42:58.961Z,1016.69
2019-03-12T06:43:58.942Z,1016.73
2019-03-12T06:44:59.027Z,1016.67
2019-03-12T06:45:58.873Z,1016.71
2019-03-12T06:46:58.932Z,1016.70
2019-03-12T06:47:58.811Z,1016.71
2019-03-12T06:48:58.784Z,1016.76
2019-03-12T06:49:58.752Z,1016.81
2019-03-12T06:50:58.850Z,1016.83
2019-03-12T06:51:58.696Z,1016.78
2019-03-12T06:52:59.791Z,1016.72
2019-03-12T06:53:58.636Z,1016.74
2019-03-12T06:54:58.623Z,1016.75
2019-03-12T06:55:58.680Z,1016.75
2019-03-12T06:56:58.542Z,1016.73
2019-03-12T06:57:58.602Z,1016.73
2019-03-12T06:58:58.475Z,1016.79
2019-03-12T06:59:58.442Z,1016.74
2019-03-12T07:00:58.412Z,1016.70
2019-03-12T07:01:58.525Z,1016.72
2019-03-12T07:02:58.353Z,1016.68
2019-03-12T07:03:58.432Z,1016.65
2019-03-12T07:04:58.303Z,1016.55
2019-03-12T07:05:58.296Z,1016.55
2019-03-12T07:07:00.844Z,1016.48
2019-03-12T07:07:58.213Z,1016.40
2019-03-12T07:08:58.263Z,1016.39
2019-03-12T07:09:58.142Z,1016.36
2019-03-12T07:10:58.116Z,1016.31
2019-03-12T07:11:58.097Z,1016.27
2019-03-12T07:12:58.091Z,1016.28
2019-03-12T07:13:58.064Z,1016.23
2019-03-12T07:14:58.102Z,1016.17
2019-03-12T07:15:57.962Z,1016.11
2019-03-12T07:16:58.011Z,1016.08
2019-03-12T07:17:57.907Z,1016.00
2019-03-12T07:18:57.924Z,1016.00
2019-03-12T07:19:57.842Z,1015.95
2019-03-12T07:20:57.840Z,1015.94
2019-03-12T07:21:58.877Z,1015.93
2019-03-12T07:22:57.763Z,1015.87
2019-03-12T07:23:57.750Z,1015.88
2019-03-12T07:24:57.683Z,1015.89
2019-03-12T07:25:57.783Z,1015.93
2019-03-12T07:26:57.632Z,1015.95
2019-03-12T07:27:57.682Z,1015.94
2019-03-12T07:28:57.581Z,1015.95
2019-03-12T07:29:57.593Z,1015.87
2019-03-12T07:30:57.522Z,1015.90
2019-03-12T07:31:57.516Z,1015.89
2019-03-12T07:32:57.445Z,1015.82
2019-03-12T07:33:58.533Z,1015.91
2019-03-12T07:34:57.391Z,1015.85
2019-03-12T07:35:57.443Z,1015.83
2019-03-12T07:36:57.322Z,1015.82
2019-03-12T07:37:57.291Z,1015.81
2019-03-12T07:38:57.262Z,1015.74
2019-03-12T07:39:57.262Z,1015.68
2019-03-12T07:40:57.206Z,1015.67
2019-03-12T07:41:57.274Z,1015.67
2019-03-12T07:42:57.171Z,1015.61
2019-03-12T07:43:57.112Z,1015.49
2019-03-12T07:44:57.194Z,1015.41
2019-03-12T07:45:57.060Z,1015.39
2019-03-12T07:46:57.106Z,1015.36
2019-03-12T07:47:57.004Z,1015.37
2019-03-12T07:48:56.971Z,1015.37
2019-03-12T07:49:57.024Z,1015.32
2019-03-12T07:50:56.911Z,1015.41
2019-03-12T07:51:56.932Z,1015.40
2019-03-12T07:52:56.853Z,1015.19
2019-03-12T07:53:59.752Z,1015.17
2019-03-12T07:54:56.782Z,1015.16
2019-03-12T07:55:56.862Z,1015.18
2019-03-12T07:56:56.736Z,1015.20
2019-03-12T07:57:56.790Z,1015.16
2019-03-12T07:58:56.676Z,1015.17
2019-03-12T07:59:56.642Z,1015.13
2019-03-12T08:00:56.619Z,1015.13
2019-03-12T08:01:56.594Z,1015.08
2019-03-12T08:02:56.558Z,1015.14
2019-03-12T08:03:59.004Z,1015.10
2019-03-12T08:04:56.495Z,1015.15
2019-03-12T08:05:56.523Z,1015.10
2019-03-12T08:06:56.430Z,1015.16
2019-03-12T08:07:56.443Z,1015.14
2019-03-12T08:08:56.379Z,1015.06
2019-03-12T08:09:56.445Z,1015.02
2019-03-12T08:10:56.314Z,1015.01
2019-03-12T08:11:56.361Z,1015.00
2019-03-12T08:12:56.254Z,1014.98
2019-03-12T08:13:56.283Z,1015.02
2019-03-12T08:14:56.193Z,1014.89
2019-03-12T08:15:56.172Z,1014.90
2019-03-12T08:16:56.132Z,1014.98
2019-03-12T08:17:56.193Z,1014.97
2019-03-12T08:18:56.074Z,1014.88
2019-03-12T08:19:56.102Z,1014.84
2019-03-12T08:20:56.027Z,1014.75
2019-03-12T08:21:55.992Z,1014.80
2019-03-12T08:22:55.967Z,1014.76
2019-03-12T08:23:56.053Z,1014.74
2019-03-12T08:24:55.944Z,1014.83
2019-03-12T08:25:55.867Z,1014.60
2019-03-12T08:26:55.844Z,1014.66
2019-03-12T08:27:55.814Z,1014.65
2019-03-12T08:28:56.898Z,1014.57
2019-03-12T08:29:55.752Z,1014.64
2019-03-12T08:30:55.772Z,1014.53
2019-03-12T08:31:55.694Z,1014.59
2019-03-12T08:32:55.684Z,1014.52
2019-03-12T08:33:55.636Z,1014.45
2019-03-12T08:34:55.707Z,1014.47
2019-03-12T08:35:55.572Z,1014.42
2019-03-12T08:36:55.606Z,1014.43
2019-03-12T08:37:55.513Z,1014.49
2019-03-12T08:38:55.527Z,1014.39
2019-03-12T08:39:55.463Z,1014.37
2019-03-12T08:40:55.433Z,1014.40
2019-03-12T08:41:55.409Z,1014.28
2019-03-12T08:42:55.375Z,1014.29
2019-03-12T08:43:55.333Z,1014.25
2019-03-12T08:44:55.375Z,1014.26
2019-03-12T08:45:55.283Z,1014.26
2019-03-12T08:46:55.277Z,1014.32
2019-03-12T08:47:55.233Z,1014.26
2019-03-12T08:48:55.195Z,1014.26
2019-03-12T08:49:55.202Z,1014.19
2019-03-12T08:50:55.143Z,1014.14
2019-03-12T08:51:55.203Z,1014.15
2019-03-12T08:52:55.090Z,1014.20
2019-03-12T08:53:55.056Z,1014.18
2019-03-12T08:54:55.016Z,1014.13
2019-03-12T08:55:55.033Z,1014.18
2019-03-12T08:56:54.965Z,1014.10
2019-03-12T08:57:54.944Z,1014.10
2019-03-12T08:58:54.907Z,1014.01
2019-03-12T08:59:54.964Z,1013.98
2019-03-12T09:00:54.842Z,1014.09
2019-03-12T09:01:54.886Z,1014.00
2019-03-12T09:02:54.794Z,1014.00
2019-03-12T09:03:54.784Z,1013.90
2019-03-12T09:04:54.788Z,1013.81
2019-03-12T09:05:54.702Z,1013.81
2019-03-12T09:06:54.710Z,1013.79
2019-03-12T09:07:54.641Z,1013.71
2019-03-12T09:08:54.723Z,1013.79
2019-03-12T09:09:54.583Z,1013.78
2019-03-12T09:10:54.622Z,1013.76
2019-03-12T09:11:54.532Z,1013.69
2019-03-12T09:12:54.533Z,1013.66
2019-03-12T09:13:54.461Z,1013.61
2019-03-12T09:14:54.554Z,1013.64
2019-03-12T09:15:54.422Z,1013.75
2019-03-12T09:16:54.371Z,1013.62
2019-03-12T09:17:54.472Z,1013.50
2019-03-12T09:18:54.333Z,1013.44
2019-03-12T09:19:54.385Z,1013.41
2019-03-12T09:20:54.292Z,1013.40
2019-03-12T09:21:54.245Z,1013.44
2019-03-12T09:22:54.303Z,1013.40
2019-03-12T09:23:54.204Z,1013.44
2019-03-12T09:24:54.212Z,1013.35
2019-03-12T09:25:54.125Z,1013.35
2019-03-12T09:26:54.107Z,1013.42
2019-03-12T09:27:54.140Z,1013.31
2019-03-12T09:28:54.042Z,1013.22
2019-03-12T09:29:54.042Z,1013.29
2019-03-12T09:30:53.971Z,1013.23
2019-03-12T09:31:53.958Z,1013.20
2019-03-12T09:32:53.920Z,1013.21
2019-03-12T09:33:53.985Z,1013.19
2019-03-12T09:34:53.863Z,1013.13
2019-03-12T09:35:53.882Z,1013.08
2019-03-12T09:36:54.239Z,1013.04
2019-03-12T09:37:53.892Z,1012.95
2019-03-12T09:38:53.752Z,1012.90
2019-03-12T09:39:53.814Z,1012.92
2019-03-12T09:40:53.703Z,1012.90
2019-03-12T09:41:53.724Z,1012.90
2019-03-12T09:42:53.631Z,1012.83
2019-03-12T09:43:53.632Z,1012.81
2019-03-12T09:44:53.581Z,1012.88
2019-03-12T09:45:53.645Z,1012.92
2019-03-12T09:46:53.525Z,1012.80
2019-03-12T09:47:53.491Z,1012.74
2019-03-12T09:48:53.465Z,1012.74
2019-03-12T09:49:53.467Z,1012.80
2019-03-12T09:50:53.412Z,1012.69
2019-03-12T09:51:53.470Z,1012.64
2019-03-12T09:52:53.342Z,1012.68
2019-03-12T09:53:53.322Z,1012.74
2019-03-12T09:54:53.402Z,1012.63
2019-03-12T09:55:53.273Z,1012.57
2019-03-12T09:56:53.312Z,1012.61
2019-03-12T09:57:53.213Z,1012.57
2019-03-12T09:58:53.181Z,1012.47
2019-03-12T09:59:53.153Z,1012.44
2019-03-12T10:00:53.137Z,1012.51
2019-03-12T10:01:53.093Z,1012.36
2019-03-12T10:02:53.160Z,1012.35
2019-03-12T10:03:53.032Z,1012.34
2019-03-12T10:04:53.062Z,1012.34
2019-03-12T10:05:52.982Z,1012.27
2019-03-12T10:06:52.970Z,1012.21
2019-03-12T10:07:52.929Z,1012.17
2019-03-12T10:08:52.991Z,1012.26
2019-03-12T10:09:52.872Z,1012.31
2019-03-12T10:10:52.843Z,1012.23
2019-03-12T10:11:52.930Z,1012.22
2019-03-12T10:12:52.795Z,1012.21
2019-03-12T10:13:52.823Z,1012.18
2019-03-12T10:14:52.733Z,1012.18
2019-03-12T10:15:52.733Z,1012.39
2019-03-12T10:16:52.674Z,1012.23
2019-03-12T10:17:52.742Z,1012.23
2019-03-12T10:18:52.622Z,1012.21
2019-03-12T10:19:52.651Z,1012.26
2019-03-12T10:20:52.571Z,1012.16
2019-03-12T10:21:52.572Z,1012.18
2019-03-12T10:22:52.513Z,1012.21
2019-03-12T10:23:52.585Z,1012.10
2019-03-12T10:24:52.462Z,1012.07
2019-03-12T10:25:52.433Z,1011.97
2019-03-12T10:26:52.404Z,1011.86
2019-03-12T10:27:52.412Z,1011.91
2019-03-12T10:28:52.356Z,1011.84
2019-03-12T10:29:52.422Z,1011.75
2019-03-12T10:30:52.305Z,1011.92
2019-03-12T10:31:52.332Z,1011.82
2019-03-12T10:32:52.261Z,1011.72
2019-03-12T10:33:52.239Z,1011.50
2019-03-12T10:34:52.194Z,1011.53
2019-03-12T10:35:52.286Z,1011.49
2019-03-12T10:36:52.164Z,1011.41
2019-03-12T10:37:52.115Z,1011.51
2019-03-12T10:38:52.182Z,1011.42
2019-03-12T10:39:52.072Z,1011.52
2019-03-12T10:40:52.099Z,1011.30
2019-03-12T10:41:52.013Z,1011.34
2019-03-12T10:42:52.106Z,1011.27
2019-03-12T10:43:51.962Z,1011.14
2019-03-12T10:44:52.016Z,1011.15
2019-03-12T10:45:51.916Z,1011.10
2019-03-12T10:46:51.930Z,1011.11
2019-03-12T10:47:51.869Z,1011.03
2019-03-12T10:48:51.942Z,1011.22
2019-03-12T10:49:51.809Z,1011.03
2019-03-12T10:50:51.851Z,1010.89
2019-03-12T10:51:51.759Z,1010.92
2019-03-12T10:52:51.725Z,1011.01
2019-03-12T10:53:51.710Z,1010.93
2019-03-12T10:54:52.708Z,1010.97
2019-03-12T10:55:51.653Z,1010.92
2019-03-12T10:56:51.690Z,1010.90
2019-03-12T10:57:51.604Z,1010.90
2019-03-12T10:58:51.560Z,1010.80
2019-03-12T10:59:51.613Z,1010.79
2019-03-12T11:00:51.503Z,1010.81
2019-03-12T11:01:51.521Z,1010.75
2019-03-12T11:02:51.463Z,1010.75
2019-03-12T11:03:51.433Z,1010.88
2019-03-12T11:04:51.401Z,1010.70
2019-03-12T11:05:51.440Z,1010.70
2019-03-12T11:06:51.353Z,1010.68
2019-03-12T11:07:51.366Z,1010.68
2019-03-12T11:08:51.295Z,1010.67
2019-03-12T11:09:51.400Z,1010.74
2019-03-12T11:10:51.241Z,1010.66
2019-03-12T11:11:51.281Z,1010.59
2019-03-12T11:12:51.183Z,1010.53
2019-03-12T11:13:51.190Z,1010.50
2019-03-12T11:14:51.135Z,1010.52
2019-03-12T11:15:51.115Z,1010.52
2019-03-12T11:16:51.111Z,1010.48
2019-03-12T11:17:51.054Z,1010.59
2019-03-12T11:18:51.137Z,1010.51
2019-03-12T11:19:50.990Z,1010.47
2019-03-12T11:20:51.047Z,1010.50
2019-03-12T11:21:50.972Z,1010.50
2019-03-12T11:22:50.951Z,1010.50
2019-03-12T11:23:50.894Z,1010.39
2019-03-12T11:24:50.963Z,1010.36
2019-03-12T11:25:50.844Z,1010.36
2019-03-12T11:26:50.882Z,1010.46
2019-03-12T11:27:50.817Z,1010.54
2019-03-12T11:28:50.795Z,1010.31
2019-03-12T11:29:50.746Z,1010.40
2019-03-12T11:30:50.710Z,1010.39
2019-03-12T11:31:50.683Z,1010.43
2019-03-12T11:32:50.710Z,1010.46
2019-03-12T11:33:50.625Z,1010.29
2019-03-12T11:34:50.680Z,1010.20
2019-03-12T11:35:50.583Z,1010.13
2019-03-12T11:36:50.646Z,1010.14
2019-03-12T11:37:50.571Z,1010.08
2019-03-12T11:38:50.570Z,1010.07
2019-03-12T11:39:50.463Z,1010.16
2019-03-12T11:40:50.477Z,1010.14
2019-03-12T11:41:50.472Z,1010.00
2019-03-12T11:42:50.400Z,1010.03
2019-03-12T11:43:50.391Z,1009.93
2019-03-12T11:44:50.342Z,1009.93
2019-03-12T11:45:50.403Z,1009.94
2019-03-12T11:46:50.351Z,1010.01
2019-03-12T11:47:50.305Z,1009.97
2019-03-12T11:48:50.333Z,1009.97
2019-03-12T11:49:50.222Z,1010.01
2019-03-12T11:50:50.268Z,1009.91
2019-03-12T11:51:50.159Z,1009.83
2019-03-12T11:52:55.465Z,1009.76
2019-03-12T11:53:50.148Z,1009.82
2019-03-12T11:54:50.104Z,1009.68
2019-03-12T11:55:50.062Z,1009.83
2019-03-12T11:56:50.059Z,1009.72
2019-03-12T11:57:50.042Z,1009.74
2019-03-12T11:58:50.060Z,1009.61
2019-03-12T11:59:49.992Z,1009.62
2019-03-12T12:00:49.912Z,1009.49
2019-03-12T12:01:50.018Z,1009.43
2019-03-12T12:02:59.254Z,1009.39
2019-03-12T12:03:49.841Z,1009.29
2019-03-12T12:04:50.003Z,1009.30